sensor_id;sensor_type;location;lat;lon;timestamp;temperature;humidity
37232;DHT22;23125;48.156;15.954;2022-07-06T00:01:52;20.10;64.60
37232;DHT22;23125;48.156;15.954;2022-07-06T00:04:19;20.10;64.70
37232;DHT22;23125;48.156;15.954;2022-07-06T00:06:45;20.10;64.70
37232;DHT22;23125;48.156;15.954;2022-07-06T00:09:11;20.10;64.80
37232;DHT22;23125;48.156;15.954;2022-07-06T00:11:37;20.10;64.90
37232;DHT22;23125;48.156;15.954;2022-07-06T00:14:03;20.10;65.00
37232;DHT22;23125;48.156;15.954;2022-07-06T00:16:30;20.00;65.00
37232;DHT22;23125;48.156;15.954;2022-07-06T00:18:56;20.00;65.10
37232;DHT22;23125;48.156;15.954;2022-07-06T00:21:22;20.00;65.30
37232;DHT22;23125;48.156;15.954;2022-07-06T00:23:48;20.00;65.30
37232;DHT22;23125;48.156;15.954;2022-07-06T00:26:14;20.00;65.50
37232;DHT22;23125;48.156;15.954;2022-07-06T00:28:39;20.00;65.60
37232;DHT22;23125;48.156;15.954;2022-07-06T00:31:05;20.00;65.80
37232;DHT22;23125;48.156;15.954;2022-07-06T00:33:31;20.10;65.90
37232;DHT22;23125;48.156;15.954;2022-07-06T00:35:57;20.10;66.00
37232;DHT22;23125;48.156;15.954;2022-07-06T00:38:23;20.10;66.30
37232;DHT22;23125;48.156;15.954;2022-07-06T00:40:49;20.10;66.30
37232;DHT22;23125;48.156;15.954;2022-07-06T00:43:15;20.10;66.50
37232;DHT22;23125;48.156;15.954;2022-07-06T00:45:41;20.10;66.70
37232;DHT22;23125;48.156;15.954;2022-07-06T00:48:07;20.20;66.80
37232;DHT22;23125;48.156;15.954;2022-07-06T00:50:34;20.20;66.90
37232;DHT22;23125;48.156;15.954;2022-07-06T00:53:02;20.20;67.10
37232;DHT22;23125;48.156;15.954;2022-07-06T00:55:31;20.20;67.30
37232;DHT22;23125;48.156;15.954;2022-07-06T00:57:59;20.20;67.50
37232;DHT22;23125;48.156;15.954;2022-07-06T01:00:27;20.30;67.60
37232;DHT22;23125;48.156;15.954;2022-07-06T01:02:53;20.30;67.90
37232;DHT22;23125;48.156;15.954;2022-07-06T01:05:20;20.30;68.00
37232;DHT22;23125;48.156;15.954;2022-07-06T01:07:49;20.40;68.10
37232;DHT22;23125;48.156;15.954;2022-07-06T01:10:18;20.40;68.20
37232;DHT22;23125;48.156;15.954;2022-07-06T01:12:45;20.40;68.20
37232;DHT22;23125;48.156;15.954;2022-07-06T01:15:14;20.50;68.20
37232;DHT22;23125;48.156;15.954;2022-07-06T01:17:41;20.50;68.20
37232;DHT22;23125;48.156;15.954;2022-07-06T01:20:08;20.50;68.30
37232;DHT22;23125;48.156;15.954;2022-07-06T01:22:35;20.60;68.40
37232;DHT22;23125;48.156;15.954;2022-07-06T01:25:00;20.60;68.40
37232;DHT22;23125;48.156;15.954;2022-07-06T01:27:26;20.60;68.50
37232;DHT22;23125;48.156;15.954;2022-07-06T01:29:52;20.60;68.40
37232;DHT22;23125;48.156;15.954;2022-07-06T01:32:18;20.70;68.50
37232;DHT22;23125;48.156;15.954;2022-07-06T01:34:44;20.70;68.50
37232;DHT22;23125;48.156;15.954;2022-07-06T01:37:09;20.70;68.60
37232;DHT22;23125;48.156;15.954;2022-07-06T01:39:35;20.70;68.70
37232;DHT22;23125;48.156;15.954;2022-07-06T01:42:01;20.70;68.70
37232;DHT22;23125;48.156;15.954;2022-07-06T01:44:27;20.70;68.70
37232;DHT22;23125;48.156;15.954;2022-07-06T01:46:53;20.70;68.70
37232;DHT22;23125;48.156;15.954;2022-07-06T01:49:19;20.80;68.80
37232;DHT22;23125;48.156;15.954;2022-07-06T01:51:44;20.80;68.80
37232;DHT22;23125;48.156;15.954;2022-07-06T01:54:10;20.80;68.70
37232;DHT22;23125;48.156;15.954;2022-07-06T01:56:36;20.80;68.70
37232;DHT22;23125;48.156;15.954;2022-07-06T01:59:02;20.80;68.60
37232;DHT22;23125;48.156;15.954;2022-07-06T02:01:28;20.80;68.50
37232;DHT22;23125;48.156;15.954;2022-07-06T02:03:54;20.80;68.40
37232;DHT22;23125;48.156;15.954;2022-07-06T02:06:19;20.80;68.40
37232;DHT22;23125;48.156;15.954;2022-07-06T02:08:45;20.80;68.30
37232;DHT22;23125;48.156;15.954;2022-07-06T02:11:11;20.70;68.30
37232;DHT22;23125;48.156;15.954;2022-07-06T02:13:38;20.70;68.30
37232;DHT22;23125;48.156;15.954;2022-07-06T02:16:04;20.70;68.30
37232;DHT22;23125;48.156;15.954;2022-07-06T02:18:30;20.70;68.30
37232;DHT22;23125;48.156;15.954;2022-07-06T02:20:57;20.70;68.30
37232;DHT22;23125;48.156;15.954;2022-07-06T02:23:23;20.60;68.20
37232;DHT22;23125;48.156;15.954;2022-07-06T02:25:48;20.60;68.10
37232;DHT22;23125;48.156;15.954;2022-07-06T02:28:14;20.60;68.00
37232;DHT22;23125;48.156;15.954;2022-07-06T02:30:40;20.50;67.90
37232;DHT22;23125;48.156;15.954;2022-07-06T02:33:06;20.50;67.90
37232;DHT22;23125;48.156;15.954;2022-07-06T02:35:32;20.50;67.90
37232;DHT22;23125;48.156;15.954;2022-07-06T02:37:57;20.50;67.90
37232;DHT22;23125;48.156;15.954;2022-07-06T02:40:23;20.40;67.80
37232;DHT22;23125;48.156;15.954;2022-07-06T02:42:49;20.40;67.80
37232;DHT22;23125;48.156;15.954;2022-07-06T02:45:15;20.30;67.70
37232;DHT22;23125;48.156;15.954;2022-07-06T02:47:41;20.30;67.70
37232;DHT22;23125;48.156;15.954;2022-07-06T02:50:07;20.20;67.70
37232;DHT22;23125;48.156;15.954;2022-07-06T02:52:33;20.20;67.70
37232;DHT22;23125;48.156;15.954;2022-07-06T02:54:59;20.10;67.60
37232;DHT22;23125;48.156;15.954;2022-07-06T02:57:24;20.10;67.60
37232;DHT22;23125;48.156;15.954;2022-07-06T02:59:50;20.10;67.60
37232;DHT22;23125;48.156;15.954;2022-07-06T03:02:17;20.10;67.60
37232;DHT22;23125;48.156;15.954;2022-07-06T03:04:43;20.00;67.50
37232;DHT22;23125;48.156;15.954;2022-07-06T03:07:09;20.00;67.50
37232;DHT22;23125;48.156;15.954;2022-07-06T03:09:34;19.90;67.50
37232;DHT22;23125;48.156;15.954;2022-07-06T03:12:01;19.90;67.50
37232;DHT22;23125;48.156;15.954;2022-07-06T03:14:27;19.90;67.50
37232;DHT22;23125;48.156;15.954;2022-07-06T03:16:53;19.80;67.50
37232;DHT22;23125;48.156;15.954;2022-07-06T03:19:19;19.80;67.60
37232;DHT22;23125;48.156;15.954;2022-07-06T03:21:45;19.80;67.70
37232;DHT22;23125;48.156;15.954;2022-07-06T03:24:11;19.70;67.70
37232;DHT22;23125;48.156;15.954;2022-07-06T03:26:37;19.70;67.70
37232;DHT22;23125;48.156;15.954;2022-07-06T03:29:03;19.70;67.80
37232;DHT22;23125;48.156;15.954;2022-07-06T03:31:29;19.60;67.80
37232;DHT22;23125;48.156;15.954;2022-07-06T03:33:55;19.60;67.80
37232;DHT22;23125;48.156;15.954;2022-07-06T03:36:20;19.60;67.80
37232;DHT22;23125;48.156;15.954;2022-07-06T03:38:46;19.60;67.80
37232;DHT22;23125;48.156;15.954;2022-07-06T03:41:12;19.60;67.80
37232;DHT22;23125;48.156;15.954;2022-07-06T03:43:38;19.60;67.80
37232;DHT22;23125;48.156;15.954;2022-07-06T03:46:04;19.60;67.80
37232;DHT22;23125;48.156;15.954;2022-07-06T03:48:30;19.60;67.80
37232;DHT22;23125;48.156;15.954;2022-07-06T03:50:55;19.60;67.90
37232;DHT22;23125;48.156;15.954;2022-07-06T03:53:22;19.60;67.90
37232;DHT22;23125;48.156;15.954;2022-07-06T03:55:48;19.60;67.90
37232;DHT22;23125;48.156;15.954;2022-07-06T03:58:34;19.60;68.00
37232;DHT22;23125;48.156;15.954;2022-07-06T04:01:00;19.60;68.10
37232;DHT22;23125;48.156;15.954;2022-07-06T04:03:26;19.60;68.10
37232;DHT22;23125;48.156;15.954;2022-07-06T04:05:52;19.60;68.20
37232;DHT22;23125;48.156;15.954;2022-07-06T04:08:18;19.60;68.20
37232;DHT22;23125;48.156;15.954;2022-07-06T04:10:45;19.60;68.20
37232;DHT22;23125;48.156;15.954;2022-07-06T04:13:11;19.70;68.30
37232;DHT22;23125;48.156;15.954;2022-07-06T04:15:37;19.60;68.20
37232;DHT22;23125;48.156;15.954;2022-07-06T04:18:04;19.70;68.30
37232;DHT22;23125;48.156;15.954;2022-07-06T04:20:29;19.70;68.30
37232;DHT22;23125;48.156;15.954;2022-07-06T04:22:55;19.60;68.20
37232;DHT22;23125;48.156;15.954;2022-07-06T04:25:21;19.70;68.30
37232;DHT22;23125;48.156;15.954;2022-07-06T04:27:47;19.70;68.30
37232;DHT22;23125;48.156;15.954;2022-07-06T04:30:13;19.70;68.90
37232;DHT22;23125;48.156;15.954;2022-07-06T04:32:39;19.70;68.30
37232;DHT22;23125;48.156;15.954;2022-07-06T04:35:06;19.70;68.40
37232;DHT22;23125;48.156;15.954;2022-07-06T04:37:32;19.80;68.50
37232;DHT22;23125;48.156;15.954;2022-07-06T04:39:58;19.80;68.50
37232;DHT22;23125;48.156;15.954;2022-07-06T04:42:24;19.80;68.50
37232;DHT22;23125;48.156;15.954;2022-07-06T04:44:50;19.90;68.70
37232;DHT22;23125;48.156;15.954;2022-07-06T04:47:17;19.80;68.70
37232;DHT22;23125;48.156;15.954;2022-07-06T04:49:43;19.90;68.80
37232;DHT22;23125;48.156;15.954;2022-07-06T04:52:09;19.90;68.90
37232;DHT22;23125;48.156;15.954;2022-07-06T04:54:35;19.90;68.90
37232;DHT22;23125;48.156;15.954;2022-07-06T04:57:01;20.00;69.00
37232;DHT22;23125;48.156;15.954;2022-07-06T04:59:27;20.00;69.10
37232;DHT22;23125;48.156;15.954;2022-07-06T05:01:53;20.00;69.20
37232;DHT22;23125;48.156;15.954;2022-07-06T05:04:19;20.10;69.30
37232;DHT22;23125;48.156;15.954;2022-07-06T05:06:46;20.10;69.40
37232;DHT22;23125;48.156;15.954;2022-07-06T05:09:13;20.20;69.50
37232;DHT22;23125;48.156;15.954;2022-07-06T05:11:39;20.20;69.70
37232;DHT22;23125;48.156;15.954;2022-07-06T05:14:05;20.30;70.10
37232;DHT22;23125;48.156;15.954;2022-07-06T05:16:32;20.40;70.70
37232;DHT22;23125;48.156;15.954;2022-07-06T05:18:58;20.60;71.60
37232;DHT22;23125;48.156;15.954;2022-07-06T05:21:24;20.80;72.80
37232;DHT22;23125;48.156;15.954;2022-07-06T05:23:50;21.10;74.10
37232;DHT22;23125;48.156;15.954;2022-07-06T05:26:16;21.40;74.40
37232;DHT22;23125;48.156;15.954;2022-07-06T05:28:42;21.90;74.40
37232;DHT22;23125;48.156;15.954;2022-07-06T05:31:08;22.30;73.80
37232;DHT22;23125;48.156;15.954;2022-07-06T05:33:35;22.70;73.60
37232;DHT22;23125;48.156;15.954;2022-07-06T05:36:00;23.10;73.40
37232;DHT22;23125;48.156;15.954;2022-07-06T05:38:26;23.40;73.50
37232;DHT22;23125;48.156;15.954;2022-07-06T05:40:52;23.80;73.70
37232;DHT22;23125;48.156;15.954;2022-07-06T05:43:18;24.30;74.20
37232;DHT22;23125;48.156;15.954;2022-07-06T05:45:44;25.00;74.10
37232;DHT22;23125;48.156;15.954;2022-07-06T05:48:10;25.70;73.00
37232;DHT22;23125;48.156;15.954;2022-07-06T05:50:54;26.50;71.50
37232;DHT22;23125;48.156;15.954;2022-07-06T05:53:20;27.30;70.10
37232;DHT22;23125;48.156;15.954;2022-07-06T05:55:47;27.90;68.00
37232;DHT22;23125;48.156;15.954;2022-07-06T05:58:13;28.60;66.40
37232;DHT22;23125;48.156;15.954;2022-07-06T06:00:39;29.20;64.60
37232;DHT22;23125;48.156;15.954;2022-07-06T06:03:05;29.80;62.60
37232;DHT22;23125;48.156;15.954;2022-07-06T06:05:31;30.30;61.10
37232;DHT22;23125;48.156;15.954;2022-07-06T06:07:57;30.80;59.80
37232;DHT22;23125;48.156;15.954;2022-07-06T06:10:23;31.30;58.90
37232;DHT22;23125;48.156;15.954;2022-07-06T06:12:50;31.80;57.90
37232;DHT22;23125;48.156;15.954;2022-07-06T06:15:17;32.20;56.80
37232;DHT22;23125;48.156;15.954;2022-07-06T06:17:43;32.70;55.80
37232;DHT22;23125;48.156;15.954;2022-07-06T06:20:12;33.20;54.90
37232;DHT22;23125;48.156;15.954;2022-07-06T06:22:49;33.60;53.70
37232;DHT22;23125;48.156;15.954;2022-07-06T06:25:17;34.00;53.00
37232;DHT22;23125;48.156;15.954;2022-07-06T06:27:43;34.40;52.00
37232;DHT22;23125;48.156;15.954;2022-07-06T06:30:11;34.80;51.50
37232;DHT22;23125;48.156;15.954;2022-07-06T06:32:37;35.20;50.60
37232;DHT22;23125;48.156;15.954;2022-07-06T06:35:05;35.40;49.70
37232;DHT22;23125;48.156;15.954;2022-07-06T06:37:32;35.80;48.80
37232;DHT22;23125;48.156;15.954;2022-07-06T06:40:00;35.50;46.00
37232;DHT22;23125;48.156;15.954;2022-07-06T06:42:26;35.40;47.40
37232;DHT22;23125;48.156;15.954;2022-07-06T06:44:52;35.70;47.70
37232;DHT22;23125;48.156;15.954;2022-07-06T06:47:17;36.00;46.90
37232;DHT22;23125;48.156;15.954;2022-07-06T06:49:45;36.20;46.20
37232;DHT22;23125;48.156;15.954;2022-07-06T06:52:11;36.50;45.20
37232;DHT22;23125;48.156;15.954;2022-07-06T06:54:36;36.70;44.30
37232;DHT22;23125;48.156;15.954;2022-07-06T06:57:02;36.70;42.40
37232;DHT22;23125;48.156;15.954;2022-07-06T06:59:28;36.20;41.60
37232;DHT22;23125;48.156;15.954;2022-07-06T07:01:54;36.40;42.90
37232;DHT22;23125;48.156;15.954;2022-07-06T07:04:20;36.60;42.60
37232;DHT22;23125;48.156;15.954;2022-07-06T07:06:46;36.90;42.00
37232;DHT22;23125;48.156;15.954;2022-07-06T07:09:12;37.20;41.60
37232;DHT22;23125;48.156;15.954;2022-07-06T07:11:38;37.50;40.80
37232;DHT22;23125;48.156;15.954;2022-07-06T07:14:03;37.70;39.80
37232;DHT22;23125;48.156;15.954;2022-07-06T07:16:29;37.90;39.50
37232;DHT22;23125;48.156;15.954;2022-07-06T07:18:55;38.20;39.10
37232;DHT22;23125;48.156;15.954;2022-07-06T07:21:21;38.50;38.60
37232;DHT22;23125;48.156;15.954;2022-07-06T07:23:47;38.80;38.20
37232;DHT22;23125;48.156;15.954;2022-07-06T07:26:14;39.00;37.60
37232;DHT22;23125;48.156;15.954;2022-07-06T07:28:40;39.40;37.30
37232;DHT22;23125;48.156;15.954;2022-07-06T07:31:05;39.40;35.70
37232;DHT22;23125;48.156;15.954;2022-07-06T07:33:32;39.60;35.90
37232;DHT22;23125;48.156;15.954;2022-07-06T07:35:58;39.50;34.60
37232;DHT22;23125;48.156;15.954;2022-07-06T07:38:24;39.70;34.80
37232;DHT22;23125;48.156;15.954;2022-07-06T07:40:49;39.80;34.50
37232;DHT22;23125;48.156;15.954;2022-07-06T07:43:15;40.10;34.40
37232;DHT22;23125;48.156;15.954;2022-07-06T07:45:41;40.40;33.70
37232;DHT22;23125;48.156;15.954;2022-07-06T07:48:07;40.50;33.40
37232;DHT22;23125;48.156;15.954;2022-07-06T07:50:33;40.60;32.50
37232;DHT22;23125;48.156;15.954;2022-07-06T07:53:01;40.50;32.50
37232;DHT22;23125;48.156;15.954;2022-07-06T07:55:27;40.70;32.30
37232;DHT22;23125;48.156;15.954;2022-07-06T07:57:53;40.80;31.70
37232;DHT22;23125;48.156;15.954;2022-07-06T08:00:19;40.80;31.90
37232;DHT22;23125;48.156;15.954;2022-07-06T08:02:47;40.80;31.30
37232;DHT22;23125;48.156;15.954;2022-07-06T08:05:14;41.00;31.20
37232;DHT22;23125;48.156;15.954;2022-07-06T08:07:44;41.20;30.70
37232;DHT22;23125;48.156;15.954;2022-07-06T08:10:10;41.20;30.60
37232;DHT22;23125;48.156;15.954;2022-07-06T08:12:37;41.30;30.40
37232;DHT22;23125;48.156;15.954;2022-07-06T08:15:04;41.40;30.00
37232;DHT22;23125;48.156;15.954;2022-07-06T08:17:30;41.50;29.80
37232;DHT22;23125;48.156;15.954;2022-07-06T08:19:57;41.50;29.60
37232;DHT22;23125;48.156;15.954;2022-07-06T08:22:23;41.60;29.30
37232;DHT22;23125;48.156;15.954;2022-07-06T08:24:49;41.60;29.40
37232;DHT22;23125;48.156;15.954;2022-07-06T08:27:15;41.60;29.40
37232;DHT22;23125;48.156;15.954;2022-07-06T08:29:41;41.60;29.00
37232;DHT22;23125;48.156;15.954;2022-07-06T08:32:07;41.60;29.10
37232;DHT22;23125;48.156;15.954;2022-07-06T08:34:33;41.60;29.20
37232;DHT22;23125;48.156;15.954;2022-07-06T08:36:59;41.80;29.30
37232;DHT22;23125;48.156;15.954;2022-07-06T08:39:24;41.90;29.10
37232;DHT22;23125;48.156;15.954;2022-07-06T08:41:51;42.10;29.10
37232;DHT22;23125;48.156;15.954;2022-07-06T08:44:18;42.10;28.90
37232;DHT22;23125;48.156;15.954;2022-07-06T08:46:45;42.10;28.40
37232;DHT22;23125;48.156;15.954;2022-07-06T08:49:16;42.10;28.70
37232;DHT22;23125;48.156;15.954;2022-07-06T08:51:42;42.20;28.60
37232;DHT22;23125;48.156;15.954;2022-07-06T08:54:09;42.30;28.50
37232;DHT22;23125;48.156;15.954;2022-07-06T08:56:38;42.30;28.20
37232;DHT22;23125;48.156;15.954;2022-07-06T08:59:04;42.30;28.20
37232;DHT22;23125;48.156;15.954;2022-07-06T09:01:33;42.30;28.10
37232;DHT22;23125;48.156;15.954;2022-07-06T09:04:00;42.30;28.00
37232;DHT22;23125;48.156;15.954;2022-07-06T09:06:28;42.30;27.90
37232;DHT22;23125;48.156;15.954;2022-07-06T09:08:56;42.40;27.90
37232;DHT22;23125;48.156;15.954;2022-07-06T09:11:24;42.50;28.00
37232;DHT22;23125;48.156;15.954;2022-07-06T09:13:51;42.60;27.90
37232;DHT22;23125;48.156;15.954;2022-07-06T09:16:24;42.70;27.90
37232;DHT22;23125;48.156;15.954;2022-07-06T09:18:50;42.60;27.50
37232;DHT22;23125;48.156;15.954;2022-07-06T09:21:30;42.60;27.40
37232;DHT22;23125;48.156;15.954;2022-07-06T09:24:00;42.50;27.30
37232;DHT22;23125;48.156;15.954;2022-07-06T09:26:26;42.10;27.00
37232;DHT22;23125;48.156;15.954;2022-07-06T09:28:55;42.00;27.30
37232;DHT22;23125;48.156;15.954;2022-07-06T09:31:21;41.90;27.50
37232;DHT22;23125;48.156;15.954;2022-07-06T09:36:39;41.60;27.60
37232;DHT22;23125;48.156;15.954;2022-07-06T09:39:25;41.40;27.50
37232;DHT22;23125;48.156;15.954;2022-07-06T09:41:56;40.90;27.30
37232;DHT22;23125;48.156;15.954;2022-07-06T09:44:31;40.50;27.30
37232;DHT22;23125;48.156;15.954;2022-07-06T09:47:00;40.00;27.40
37232;DHT22;23125;48.156;15.954;2022-07-06T09:49:27;39.50;27.90
37232;DHT22;23125;48.156;15.954;2022-07-06T09:51:56;39.00;27.90
37232;DHT22;23125;48.156;15.954;2022-07-06T09:54:23;38.50;28.40
37232;DHT22;23125;48.156;15.954;2022-07-06T09:56:50;38.10;29.10
37232;DHT22;23125;48.156;15.954;2022-07-06T09:59:19;37.80;29.80
37232;DHT22;23125;48.156;15.954;2022-07-06T10:01:49;37.40;29.90
37232;DHT22;23125;48.156;15.954;2022-07-06T10:04:16;37.00;30.00
37232;DHT22;23125;48.156;15.954;2022-07-06T10:06:44;36.70;30.20
37232;DHT22;23125;48.156;15.954;2022-07-06T10:09:12;36.30;30.60
37232;DHT22;23125;48.156;15.954;2022-07-06T10:11:51;35.90;30.70
37232;DHT22;23125;48.156;15.954;2022-07-06T10:14:23;35.50;31.00
37232;DHT22;23125;48.156;15.954;2022-07-06T10:16:50;35.00;31.60
37232;DHT22;23125;48.156;15.954;2022-07-06T10:19:19;34.50;31.60
37232;DHT22;23125;48.156;15.954;2022-07-06T10:21:45;34.10;32.70
37232;DHT22;23125;48.156;15.954;2022-07-06T10:24:12;33.60;32.80
37232;DHT22;23125;48.156;15.954;2022-07-06T10:26:39;33.30;33.90
37232;DHT22;23125;48.156;15.954;2022-07-06T10:29:07;33.00;34.50
37232;DHT22;23125;48.156;15.954;2022-07-06T10:31:35;32.60;35.10
37232;DHT22;23125;48.156;15.954;2022-07-06T10:37:28;31.80;35.30
37232;DHT22;23125;48.156;15.954;2022-07-06T10:39:54;31.30;36.40
37232;DHT22;23125;48.156;15.954;2022-07-06T10:45:05;30.50;38.40
37232;DHT22;23125;48.156;15.954;2022-07-06T10:47:31;30.20;39.20
37232;DHT22;23125;48.156;15.954;2022-07-06T10:50:00;30.00;40.20
37232;DHT22;23125;48.156;15.954;2022-07-06T10:55:34;29.90;41.30
37232;DHT22;23125;48.156;15.954;2022-07-06T10:58:00;29.80;42.20
37232;DHT22;23125;48.156;15.954;2022-07-06T11:03:30;29.90;43.20
37232;DHT22;23125;48.156;15.954;2022-07-06T11:06:01;29.90;43.50
37232;DHT22;23125;48.156;15.954;2022-07-06T11:08:46;29.90;43.60
37232;DHT22;23125;48.156;15.954;2022-07-06T11:13:49;30.10;44.10
37232;DHT22;23125;48.156;15.954;2022-07-06T11:16:17;30.10;44.40
37232;DHT22;23125;48.156;15.954;2022-07-06T11:19:10;30.20;44.70
37232;DHT22;23125;48.156;15.954;2022-07-06T11:21:43;30.30;44.70
37232;DHT22;23125;48.156;15.954;2022-07-06T11:24:12;30.30;44.70
37232;DHT22;23125;48.156;15.954;2022-07-06T11:26:38;30.40;44.90
37232;DHT22;23125;48.156;15.954;2022-07-06T11:29:07;30.40;44.50
37232;DHT22;23125;48.156;15.954;2022-07-06T11:31:35;30.40;44.90
37232;DHT22;23125;48.156;15.954;2022-07-06T11:34:08;30.30;45.10
37232;DHT22;23125;48.156;15.954;2022-07-06T11:36:34;30.30;45.40
37232;DHT22;23125;48.156;15.954;2022-07-06T11:39:00;30.30;45.40
37232;DHT22;23125;48.156;15.954;2022-07-06T11:41:27;30.30;45.60
37232;DHT22;23125;48.156;15.954;2022-07-06T11:43:53;30.30;45.50
37232;DHT22;23125;48.156;15.954;2022-07-06T11:46:23;30.20;45.60
37232;DHT22;23125;48.156;15.954;2022-07-06T11:49:09;30.20;45.80
37232;DHT22;23125;48.156;15.954;2022-07-06T11:51:39;30.20;46.10
37232;DHT22;23125;48.156;15.954;2022-07-06T11:54:19;30.20;46.40
37232;DHT22;23125;48.156;15.954;2022-07-06T11:56:53;30.10;46.00
37232;DHT22;23125;48.156;15.954;2022-07-06T11:59:27;30.10;46.00
37232;DHT22;23125;48.156;15.954;2022-07-06T12:02:01;30.10;46.00
37232;DHT22;23125;48.156;15.954;2022-07-06T12:04:29;30.00;46.00
37232;DHT22;23125;48.156;15.954;2022-07-06T12:06:57;30.00;46.00
37232;DHT22;23125;48.156;15.954;2022-07-06T12:09:25;29.90;46.40
37232;DHT22;23125;48.156;15.954;2022-07-06T12:11:51;29.90;46.30
37232;DHT22;23125;48.156;15.954;2022-07-06T12:14:19;29.90;46.10
37232;DHT22;23125;48.156;15.954;2022-07-06T12:16:46;29.80;46.20
37232;DHT22;23125;48.156;15.954;2022-07-06T12:19:13;29.80;46.60
37232;DHT22;23125;48.156;15.954;2022-07-06T12:21:47;29.80;46.30
37232;DHT22;23125;48.156;15.954;2022-07-06T12:24:24;29.70;46.20
37232;DHT22;23125;48.156;15.954;2022-07-06T12:26:52;29.70;46.30
37232;DHT22;23125;48.156;15.954;2022-07-06T12:29:19;29.70;46.50
37232;DHT22;23125;48.156;15.954;2022-07-06T12:31:55;29.60;46.10
37232;DHT22;23125;48.156;15.954;2022-07-06T12:34:27;29.60;46.00
37232;DHT22;23125;48.156;15.954;2022-07-06T12:36:57;29.60;46.00
37232;DHT22;23125;48.156;15.954;2022-07-06T12:39:27;29.50;46.10
37232;DHT22;23125;48.156;15.954;2022-07-06T12:42:02;29.50;46.10
37232;DHT22;23125;48.156;15.954;2022-07-06T12:44:29;29.50;46.00
37232;DHT22;23125;48.156;15.954;2022-07-06T12:47:03;29.50;46.20
37232;DHT22;23125;48.156;15.954;2022-07-06T12:49:31;29.40;46.20
37232;DHT22;23125;48.156;15.954;2022-07-06T12:52:00;29.40;46.10
37232;DHT22;23125;48.156;15.954;2022-07-06T12:54:32;29.30;46.50
37232;DHT22;23125;48.156;15.954;2022-07-06T12:57:04;29.30;46.50
37232;DHT22;23125;48.156;15.954;2022-07-06T12:59:33;29.30;46.50
37232;DHT22;23125;48.156;15.954;2022-07-06T13:02:00;29.20;45.70
37232;DHT22;23125;48.156;15.954;2022-07-06T13:04:31;29.00;45.20
37232;DHT22;23125;48.156;15.954;2022-07-06T13:07:00;28.80;45.20
37232;DHT22;23125;48.156;15.954;2022-07-06T13:09:28;28.60;44.90
37232;DHT22;23125;48.156;15.954;2022-07-06T13:11:54;28.40;44.90
37232;DHT22;23125;48.156;15.954;2022-07-06T13:14:20;28.20;44.20
37232;DHT22;23125;48.156;15.954;2022-07-06T13:16:47;27.70;43.90
37232;DHT22;23125;48.156;15.954;2022-07-06T13:19:14;27.40;44.70
37232;DHT22;23125;48.156;15.954;2022-07-06T13:21:40;27.10;44.90
37232;DHT22;23125;48.156;15.954;2022-07-06T13:24:06;26.80;45.10
37232;DHT22;23125;48.156;15.954;2022-07-06T13:26:33;26.50;45.90
37232;DHT22;23125;48.156;15.954;2022-07-06T13:29:00;26.30;46.50
37232;DHT22;23125;48.156;15.954;2022-07-06T13:31:27;26.20;47.20
37232;DHT22;23125;48.156;15.954;2022-07-06T13:33:54;26.00;47.20
37232;DHT22;23125;48.156;15.954;2022-07-06T13:36:20;25.90;47.60
37232;DHT22;23125;48.156;15.954;2022-07-06T13:38:46;25.80;48.00
37232;DHT22;23125;48.156;15.954;2022-07-06T13:41:12;25.70;48.30
37232;DHT22;23125;48.156;15.954;2022-07-06T13:43:38;25.60;48.40
37232;DHT22;23125;48.156;15.954;2022-07-06T13:46:04;25.60;48.80
37232;DHT22;23125;48.156;15.954;2022-07-06T13:48:31;25.50;49.60
37232;DHT22;23125;48.156;15.954;2022-07-06T13:50:58;25.50;50.10
37232;DHT22;23125;48.156;15.954;2022-07-06T13:53:25;25.60;50.20
37232;DHT22;23125;48.156;15.954;2022-07-06T13:55:51;25.60;50.60
37232;DHT22;23125;48.156;15.954;2022-07-06T13:58:17;25.70;50.70
37232;DHT22;23125;48.156;15.954;2022-07-06T14:00:43;25.70;50.70
37232;DHT22;23125;48.156;15.954;2022-07-06T14:03:09;25.80;50.90
37232;DHT22;23125;48.156;15.954;2022-07-06T14:05:35;25.80;51.10
37232;DHT22;23125;48.156;15.954;2022-07-06T14:08:02;25.90;51.30
37232;DHT22;23125;48.156;15.954;2022-07-06T14:10:28;25.90;51.50
37232;DHT22;23125;48.156;15.954;2022-07-06T14:12:54;26.00;51.50
37232;DHT22;23125;48.156;15.954;2022-07-06T14:15:20;26.00;51.20
37232;DHT22;23125;48.156;15.954;2022-07-06T14:17:46;25.90;51.00
37232;DHT22;23125;48.156;15.954;2022-07-06T14:20:15;25.90;50.80
37232;DHT22;23125;48.156;15.954;2022-07-06T14:22:44;25.80;50.80
37232;DHT22;23125;48.156;15.954;2022-07-06T14:25:09;25.70;50.90
37232;DHT22;23125;48.156;15.954;2022-07-06T14:27:36;25.60;50.30
37232;DHT22;23125;48.156;15.954;2022-07-06T14:30:03;25.40;50.20
37232;DHT22;23125;48.156;15.954;2022-07-06T14:32:29;25.20;50.40
37232;DHT22;23125;48.156;15.954;2022-07-06T14:34:55;25.10;50.90
37232;DHT22;23125;48.156;15.954;2022-07-06T14:37:21;25.00;51.60
37232;DHT22;23125;48.156;15.954;2022-07-06T14:39:47;24.90;52.20
37232;DHT22;23125;48.156;15.954;2022-07-06T14:42:14;24.90;52.60
37232;DHT22;23125;48.156;15.954;2022-07-06T14:44:40;24.90;53.10
37232;DHT22;23125;48.156;15.954;2022-07-06T14:47:06;25.00;53.40
37232;DHT22;23125;48.156;15.954;2022-07-06T14:49:32;25.00;53.60
37232;DHT22;23125;48.156;15.954;2022-07-06T14:51:58;25.10;53.80
37232;DHT22;23125;48.156;15.954;2022-07-06T14:54:24;25.20;53.80
37232;DHT22;23125;48.156;15.954;2022-07-06T14:56:50;25.20;53.70
37232;DHT22;23125;48.156;15.954;2022-07-06T14:59:16;25.20;53.70
37232;DHT22;23125;48.156;15.954;2022-07-06T15:01:42;25.30;53.50
37232;DHT22;23125;48.156;15.954;2022-07-06T15:04:10;25.30;53.50
37232;DHT22;23125;48.156;15.954;2022-07-06T15:06:37;25.30;53.10
37232;DHT22;23125;48.156;15.954;2022-07-06T15:09:03;25.30;53.10
37232;DHT22;23125;48.156;15.954;2022-07-06T15:11:31;25.30;53.40
37232;DHT22;23125;48.156;15.954;2022-07-06T15:13:57;25.30;53.50
37232;DHT22;23125;48.156;15.954;2022-07-06T15:16:23;25.30;53.70
37232;DHT22;23125;48.156;15.954;2022-07-06T15:18:50;25.30;53.90
37232;DHT22;23125;48.156;15.954;2022-07-06T15:21:16;25.30;54.10
37232;DHT22;23125;48.156;15.954;2022-07-06T15:23:42;25.30;54.30
37232;DHT22;23125;48.156;15.954;2022-07-06T15:26:08;25.30;54.50
37232;DHT22;23125;48.156;15.954;2022-07-06T15:28:34;25.30;54.50
37232;DHT22;23125;48.156;15.954;2022-07-06T15:31:00;25.30;54.70
37232;DHT22;23125;48.156;15.954;2022-07-06T15:33:26;25.40;54.60